Time;durP1;ratioP1;P1;durP2;ratioP2;P2;SDS_P1;SDS_P2;PMS_P1;PMS_P2;Temp;Humidity;BMP_temperature;BMP_pressure;BME280_temperature;BME280_humidity;BME280_pressure;Samples;Min_cycle;Max_cycle;Signal;HPM_P1;HPM_P2
2020/12/24 00:02:05;;;;;;;5.65;4.80;;;13.30;96.70;;;;;;5034073;28;20033;-86
2020/12/24 00:04:32;;;;;;;5.25;4.75;;;13.30;96.70;;;;;;5014650;28;20037;-88
2020/12/24 00:06:59;;;;;;;6.15;4.88;;;13.30;96.70;;;;;;5040824;28;20518;-86
2020/12/24 00:09:27;;;;;;;4.80;4.35;;;13.30;96.70;;;;;;5025805;28;20128;-86
2020/12/24 00:11:55;;;;;;;7.95;4.60;;;13.30;96.70;;;;;;5041344;28;20045;-87
2020/12/24 00:14:22;;;;;;;6.32;4.80;;;13.30;96.70;;;;;;5030530;28;20063;-87
2020/12/24 00:16:50;;;;;;;5.95;4.25;;;13.30;96.70;;;;;;5025957;28;20096;-87
2020/12/24 00:19:17;;;;;;;7.13;5.03;;;13.30;96.70;;;;;;5020801;28;20042;-87
2020/12/24 00:21:45;;;;;;;5.55;4.45;;;13.30;96.70;;;;;;5019573;28;20132;-87
2020/12/24 00:24:14;;;;;;;6.47;4.45;;;13.30;96.70;;;;;;5049370;28;20155;-87
2020/12/24 00:26:42;;;;;;;6.00;4.80;;;13.30;96.70;;;;;;5044390;28;20048;-86
2020/12/24 00:29:10;;;;;;;5.68;4.57;;;13.30;96.70;;;;;;5028425;28;20072;-89
2020/12/24 00:31:37;;;;;;;6.78;4.40;;;13.40;96.70;;;;;;5041614;28;20045;-87
2020/12/24 00:34:06;;;;;;;7.00;4.20;;;13.30;96.70;;;;;;5028230;28;20041;-87
2020/12/24 00:36:34;;;;;;;8.70;5.03;;;13.30;96.70;;;;;;5042568;28;20092;-87
2020/12/24 00:39:03;;;;;;;6.40;4.90;;;13.30;96.70;;;;;;5042845;28;20068;-87
2020/12/24 00:41:30;;;;;;;5.85;4.65;;;13.20;96.70;;;;;;5025170;28;20064;-87
2020/12/24 00:43:57;;;;;;;7.47;4.43;;;13.20;96.70;;;;;;5041864;28;20037;-87
2020/12/24 00:46:24;;;;;;;6.03;4.65;;;13.20;96.70;;;;;;5026051;28;20052;-88
2020/12/24 00:48:52;;;;;;;5.43;4.93;;;13.20;96.70;;;;;;5042645;28;20072;-88
2020/12/24 00:51:20;;;;;;;6.65;4.72;;;13.20;96.70;;;;;;5025656;28;20118;-88
2020/12/24 00:53:47;;;;;;;5.05;4.50;;;13.20;96.70;;;;;;5035092;28;20396;-88
2020/12/24 00:56:14;;;;;;;6.88;4.60;;;13.20;96.70;;;;;;5044028;28;20033;-88
2020/12/24 00:58:54;;;;;;;4.45;4.05;;;13.10;96.70;;;;;;5021656;28;20306;-88
2020/12/24 01:01:21;;;;;;;5.13;3.80;;;13.10;96.70;;;;;;5038675;28;20044;-88
2020/12/24 01:03:48;;;;;;;6.88;4.05;;;13.10;96.70;;;;;;5040817;28;20043;-88
2020/12/24 01:06:15;;;;;;;4.50;3.88;;;13.10;96.70;;;;;;5043585;28;20041;-88
2020/12/24 01:08:43;;;;;;;6.78;4.30;;;13.10;96.70;;;;;;5040847;28;20208;-88
2020/12/24 01:11:11;;;;;;;7.43;5.03;;;13.10;96.70;;;;;;5044196;28;20044;-87
2020/12/24 01:13:38;;;;;;;6.25;4.63;;;13.10;96.70;;;;;;5042197;28;20052;-88
2020/12/24 01:16:07;;;;;;;6.10;4.53;;;13.00;96.70;;;;;;5040325;28;20045;-88
2020/12/24 01:18:49;;;;;;;5.53;4.35;;;13.00;96.70;;;;;;5035844;28;20073;-88
2020/12/24 01:21:16;;;;;;;6.35;4.30;;;13.00;96.70;;;;;;5033136;28;20051;-87
2020/12/24 01:23:44;;;;;;;4.80;4.30;;;13.10;96.70;;;;;;5042284;28;20520;-89
2020/12/24 01:26:11;;;;;;;5.45;4.55;;;13.00;96.70;;;;;;5041159;28;20051;-86
2020/12/24 01:28:38;;;;;;;5.97;4.78;;;13.00;96.70;;;;;;5043904;28;20045;-85
2020/12/24 01:31:06;;;;;;;9.23;4.45;;;12.90;96.70;;;;;;5041627;28;20037;-84
2020/12/24 01:33:33;;;;;;;7.80;4.35;;;12.90;96.70;;;;;;5038887;28;20045;-84
2020/12/24 01:36:00;;;;;;;5.78;4.28;;;12.90;96.70;;;;;;5037661;28;20041;-84
2020/12/24 01:38:27;;;;;;;4.63;4.20;;;12.80;96.70;;;;;;5037750;28;20111;-85
2020/12/24 01:40:58;;;;;;;5.07;3.72;;;12.80;96.70;;;;;;5043797;28;20718;-85
2020/12/24 01:43:25;;;;;;;4.22;3.80;;;12.80;96.70;;;;;;5023824;28;20044;-85
2020/12/24 01:45:53;;;;;;;5.28;4.43;;;12.80;96.70;;;;;;5041040;28;20048;-85
2020/12/24 01:48:21;;;;;;;10.13;4.22;;;12.70;96.70;;;;;;5040505;28;20064;-85
2020/12/24 01:50:48;;;;;;;6.35;4.20;;;12.70;96.70;;;;;;5042092;28;20033;-85
2020/12/24 01:53:29;;;;;;;5.38;4.40;;;12.70;96.70;;;;;;5037449;28;20578;-84
2020/12/24 01:55:57;;;;;;;6.85;4.07;;;12.60;96.70;;;;;;5041058;28;20457;-85
2020/12/24 01:58:25;;;;;;;6.00;4.38;;;12.60;96.70;;;;;;5039079;28;20671;-84
2020/12/24 02:00:52;;;;;;;7.88;4.20;;;12.50;96.70;;;;;;5032508;28;20426;-84
2020/12/24 02:03:19;;;;;;;5.80;3.60;;;12.50;96.70;;;;;;5045059;28;20048;-84
2020/12/24 02:05:46;;;;;;;5.50;4.10;;;12.50;96.70;;;;;;5026837;28;20128;-85
2020/12/24 02:08:15;;;;;;;5.18;3.63;;;12.50;96.70;;;;;;5029182;28;20040;-85
2020/12/24 02:10:43;;;;;;;4.60;3.47;;;12.50;96.70;;;;;;5043527;28;20056;-84
2020/12/24 02:13:11;;;;;;;5.70;4.40;;;12.50;96.70;;;;;;5025219;28;20398;-84
2020/12/24 02:15:38;;;;;;;5.32;4.15;;;12.50;96.70;;;;;;5043790;28;20249;-85
2020/12/24 02:18:06;;;;;;;5.45;4.25;;;12.50;96.70;;;;;;5042307;28;20053;-84
2020/12/24 02:20:33;;;;;;;6.88;4.82;;;12.50;96.70;;;;;;5022210;28;20048;-85
2020/12/24 02:23:01;;;;;;;8.60;4.43;;;12.50;96.70;;;;;;5043758;28;20043;-85
2020/12/24 02:25:30;;;;;;;5.22;4.32;;;12.40;96.70;;;;;;5039834;28;20124;-86
2020/12/24 02:27:58;;;;;;;7.05;4.45;;;12.40;96.70;;;;;;5028571;28;20072;-86
2020/12/24 02:30:25;;;;;;;5.65;4.57;;;12.40;96.70;;;;;;5029374;28;20050;-85
2020/12/24 02:32:53;;;;;;;6.65;4.95;;;12.40;96.70;;;;;;5037218;28;20044;-85
2020/12/24 02:35:20;;;;;;;6.32;5.05;;;12.40;96.70;;;;;;5021820;28;20041;-85
2020/12/24 02:37:47;;;;;;;6.45;5.18;;;12.40;96.70;;;;;;5024269;28;20132;-85
2020/12/24 02:40:15;;;;;;;5.80;4.65;;;12.30;96.70;;;;;;5042844;28;20040;-85
2020/12/24 02:42:42;;;;;;;5.75;5.15;;;12.30;96.70;;;;;;5041962;28;20045;-86
2020/12/24 02:45:10;;;;;;;5.38;4.82;;;12.30;96.70;;;;;;5041380;28;20513;-85
2020/12/24 02:47:37;;;;;;;6.70;5.10;;;12.30;96.70;;;;;;5041494;28;20522;-85
2020/12/24 02:50:05;;;;;;;7.75;4.82;;;12.30;96.70;;;;;;5036974;28;20048;-85
2020/12/24 02:52:33;;;;;;;5.65;5.07;;;12.20;96.70;;;;;;5025974;28;20040;-85
2020/12/24 02:55:02;;;;;;;5.43;4.15;;;12.20;96.70;;;;;;5039771;28;20076;-85
2020/12/24 02:57:30;;;;;;;5.30;4.43;;;12.20;96.70;;;;;;5022279;28;20057;-85
2020/12/24 03:00:07;;;;;;;5.70;4.50;;;12.10;96.70;;;;;;5058544;28;20144;-85
2020/12/24 03:02:34;;;;;;;5.22;4.72;;;12.10;96.70;;;;;;5025962;28;20126;-85
2020/12/24 03:05:02;;;;;;;5.10;4.60;;;12.10;96.70;;;;;;5043608;28;20115;-85
2020/12/24 03:07:29;;;;;;;6.25;4.38;;;12.10;96.70;;;;;;5042185;28;20058;-86
2020/12/24 03:09:56;;;;;;;4.68;4.18;;;12.00;96.70;;;;;;5042909;28;20044;-85
2020/12/24 03:12:25;;;;;;;4.88;4.40;;;12.00;96.70;;;;;;5039112;28;20056;-86
2020/12/24 03:14:53;;;;;;;5.13;4.65;;;12.00;96.70;;;;;;5027526;28;20045;-86
2020/12/24 03:17:21;;;;;;;4.40;4.00;;;12.00;96.70;;;;;;5024581;28;20049;-85
2020/12/24 03:19:48;;;;;;;4.20;3.22;;;11.90;96.70;;;;;;5042296;28;20643;-85
2020/12/24 03:22:15;;;;;;;4.40;3.53;;;11.80;96.70;;;;;;5043022;28;20045;-85
2020/12/24 03:24:42;;;;;;;2.92;2.63;;;11.80;96.70;;;;;;5022512;28;20048;-85
2020/12/24 03:27:09;;;;;;;3.13;2.83;;;11.80;96.70;;;;;;5042626;28;20059;-85
2020/12/24 03:29:36;;;;;;;4.97;2.67;;;11.80;96.70;;;;;;5024073;28;20081;-85
2020/12/24 03:32:04;;;;;;;3.03;2.80;;;11.80;96.70;;;;;;5039839;28;20068;-85
2020/12/24 03:34:32;;;;;;;4.00;2.67;;;11.70;96.70;;;;;;5040320;28;20029;-85
2020/12/24 03:36:59;;;;;;;3.13;2.78;;;11.70;96.70;;;;;;5038791;28;20065;-85
2020/12/24 03:39:26;;;;;;;3.42;3.10;;;11.70;96.70;;;;;;5037738;28;20041;-85
2020/12/24 03:41:53;;;;;;;4.43;2.58;;;11.70;96.70;;;;;;5039533;28;20095;-85
2020/12/24 03:44:20;;;;;;;3.20;2.90;;;11.70;96.70;;;;;;5040672;28;20034;-85
2020/12/24 03:46:48;;;;;;;4.68;2.65;;;11.70;96.70;;;;;;5041798;28;20040;-85
2020/12/24 03:49:16;;;;;;;3.95;2.72;;;11.70;96.70;;;;;;5040172;28;20049;-85
2020/12/24 03:51:43;;;;;;;3.28;2.97;;;11.70;96.70;;;;;;5042802;28;20041;-86
2020/12/24 03:54:10;;;;;;;3.22;2.60;;;11.70;96.70;;;;;;5025591;28;20591;-85
2020/12/24 03:56:37;;;;;;;3.55;2.80;;;11.70;96.70;;;;;;5041916;28;20041;-85
2020/12/24 03:59:04;;;;;;;3.75;2.85;;;11.80;96.70;;;;;;5028982;28;20047;-85
2020/12/24 04:01:31;;;;;;;5.57;2.67;;;11.80;96.70;;;;;;5040913;28;20502;-85
2020/12/24 04:03:58;;;;;;;4.53;2.75;;;11.80;96.70;;;;;;5032023;28;20046;-85
2020/12/24 04:06:26;;;;;;;3.10;2.80;;;11.70;96.70;;;;;;5037477;28;20037;-85
2020/12/24 04:08:53;;;;;;;4.60;2.75;;;11.60;96.70;;;;;;5015433;28;20045;-85
2020/12/24 04:11:21;;;;;;;3.40;2.72;;;11.50;96.70;;;;;;5019493;28;20045;-85
2020/12/24 04:13:47;;;;;;;4.75;3.15;;;11.50;96.70;;;;;;5041202;28;20037;-85
2020/12/24 04:16:17;;;;;;;5.05;2.83;;;11.50;96.70;;;;;;5034378;28;20041;-85
2020/12/24 04:18:44;;;;;;;4.25;2.63;;;11.50;96.70;;;;;;5039538;28;20045;-86
2020/12/24 04:21:11;;;;;;;3.70;2.65;;;11.50;96.70;;;;;;5025104;28;20047;-85
2020/12/24 04:23:41;;;;;;;3.83;2.67;;;11.50;96.70;;;;;;5040532;28;20045;-85
2020/12/24 04:26:09;;;;;;;3.10;2.38;;;11.50;96.70;;;;;;5040698;28;20044;-86
2020/12/24 04:28:36;;;;;;;3.03;2.70;;;11.50;96.70;;;;;;5040442;28;20128;-86
2020/12/24 04:31:04;;;;;;;2.70;2.25;;;11.40;96.70;;;;;;5055136;22;20041;-87
2020/12/24 04:33:34;;;;;;;3.05;2.55;;;11.40;96.70;;;;;;5003147;28;20056;-86
2020/12/24 04:36:01;;;;;;;4.25;2.60;;;11.50;96.70;;;;;;5000272;28;20034;-85
2020/12/24 04:38:28;;;;;;;3.58;2.40;;;11.50;96.70;;;;;;5017501;28;20045;-86
2020/12/24 04:40:58;;;;;;;3.92;2.20;;;11.50;96.70;;;;;;5017424;28;20042;-86
2020/12/24 04:43:26;;;;;;;4.32;2.20;;;11.50;96.70;;;;;;5002835;28;20049;-86
2020/12/24 04:45:53;;;;;;;3.20;2.28;;;11.50;96.70;;;;;;5001632;28;20029;-84
2020/12/24 04:48:21;;;;;;;3.80;2.25;;;11.50;96.70;;;;;;5001538;28;20057;-84
2020/12/24 04:50:50;;;;;;;3.25;2.30;;;11.50;96.70;;;;;;5017321;28;20034;-84
2020/12/24 04:53:17;;;;;;;2.45;1.80;;;11.40;96.70;;;;;;5002664;28;20050;-84
2020/12/24 04:55:45;;;;;;;1.88;1.50;;;11.40;96.70;;;;;;5013791;28;20038;-84
2020/12/24 04:58:13;;;;;;;2.03;1.65;;;11.40;96.70;;;;;;5001577;28;20053;-84
2020/12/24 05:00:40;;;;;;;2.03;1.70;;;11.40;96.70;;;;;;5000623;28;20056;-84
2020/12/24 05:03:09;;;;;;;3.40;1.42;;;11.50;96.70;;;;;;5002346;28;20045;-85
2020/12/24 05:05:38;;;;;;;2.20;1.73;;;11.50;96.70;;;;;;4964677;28;20047;-84
2020/12/24 05:08:06;;;;;;;3.38;1.70;;;11.40;96.70;;;;;;4981330;28;20444;-84
2020/12/24 05:10:35;;;;;;;1.70;1.60;;;11.40;96.70;;;;;;4967693;28;20093;-85
2020/12/24 05:13:17;;;;;;;2.50;1.70;;;11.40;96.70;;;;;;5019513;28;20042;-84
2020/12/24 05:15:44;;;;;;;3.97;2.30;;;11.40;96.70;;;;;;5016667;28;20053;-84
2020/12/24 05:18:15;;;;;;;2.00;1.70;;;11.40;96.70;;;;;;4970945;28;20077;-84
2020/12/24 05:20:42;;;;;;;2.30;1.85;;;11.40;96.70;;;;;;5014668;28;20050;-84
2020/12/24 05:23:11;;;;;;;2.53;1.80;;;11.40;96.70;;;;;;4972264;28;20038;-84
2020/12/24 05:25:39;;;;;;;3.33;2.22;;;11.40;96.70;;;;;;5016133;28;20037;-85
2020/12/24 05:28:06;;;;;;;2.88;2.10;;;11.40;96.70;;;;;;4986700;28;20041;-84
2020/12/24 05:30:34;;;;;;;3.08;2.03;;;11.40;96.70;;;;;;4978380;28;20514;-84
2020/12/24 05:33:02;;;;;;;2.25;1.90;;;11.40;96.70;;;;;;4995547;28;20045;-84
2020/12/24 05:35:29;;;;;;;2.38;2.03;;;11.50;96.70;;;;;;5004986;28;20096;-84
2020/12/24 05:37:56;;;;;;;5.70;2.50;;;11.50;96.70;;;;;;4981469;28;20049;-84
2020/12/24 05:40:25;;;;;;;4.35;2.22;;;11.50;96.70;;;;;;4985837;28;20054;-84
2020/12/24 05:42:54;;;;;;;3.15;2.53;;;11.50;96.70;;;;;;5005034;28;20045;-82
2020/12/24 05:45:22;;;;;;;2.50;1.98;;;11.60;96.70;;;;;;5003926;28;20106;-83
2020/12/24 05:48:06;;;;;;;4.25;2.10;;;11.60;96.70;;;;;;5004480;28;20385;-84
2020/12/24 05:50:34;;;;;;;5.35;2.05;;;11.70;96.70;;;;;;5000503;28;20053;-84
2020/12/24 05:53:04;;;;;;;2.85;1.85;;;11.70;96.70;;;;;;5004925;28;20494;-84
2020/12/24 05:55:31;;;;;;;2.17;1.73;;;11.70;96.70;;;;;;5004014;28;20041;-83
2020/12/24 05:57:59;;;;;;;2.67;2.13;;;11.70;96.70;;;;;;5003570;28;20049;-83
2020/12/24 06:00:32;;;;;;;2.47;1.65;;;11.70;96.70;;;;;;5019330;28;20496;-83
2020/12/24 06:03:16;;;;;;;4.25;1.90;;;11.70;96.70;;;;;;5020972;28;20488;-83
2020/12/24 06:05:55;;;;;;;2.42;2.22;;;11.70;96.70;;;;;;4986451;28;20474;-84
2020/12/24 06:08:25;;;;;;;2.72;2.40;;;11.70;96.70;;;;;;5004160;28;20046;-84
2020/12/24 06:11:07;;;;;;;4.28;2.50;;;11.70;96.70;;;;;;4973870;28;20078;-84
2020/12/24 06:13:38;;;;;;;2.13;1.92;;;11.70;96.70;;;;;;5002240;28;20046;-84
2020/12/24 06:16:07;;;;;;;1.52;1.42;;;11.70;96.70;;;;;;5001019;28;20042;-83
2020/12/24 06:18:37;;;;;;;2.80;2.30;;;11.70;96.70;;;;;;4974127;28;20050;-84
2020/12/24 06:21:13;;;;;;;2.90;1.77;;;11.70;96.70;;;;;;4987459;28;20050;-84
2020/12/24 06:23:45;;;;;;;4.40;2.10;;;11.60;96.70;;;;;;5004744;28;20134;-84
2020/12/24 06:26:18;;;;;;;3.70;1.83;;;11.60;96.70;;;;;;5006878;28;20511;-84
2020/12/24 06:28:46;;;;;;;3.58;1.83;;;11.60;96.70;;;;;;5005995;28;20042;-84
2020/12/24 06:31:17;;;;;;;4.47;2.00;;;11.60;96.70;;;;;;4967936;28;20427;-84
2020/12/24 06:33:45;;;;;;;1.80;1.45;;;11.60;96.70;;;;;;5002825;28;20038;-84
2020/12/24 06:36:30;;;;;;;2.85;1.95;;;11.60;96.70;;;;;;5020147;28;20047;-83
2020/12/24 06:38:58;;;;;;;2.88;1.88;;;11.60;96.70;;;;;;5032816;28;20493;-84
2020/12/24 06:41:28;;;;;;;3.22;2.17;;;11.60;96.70;;;;;;5002289;28;20140;-84
2020/12/24 06:43:56;;;;;;;3.80;2.10;;;11.60;96.70;;;;;;5006710;28;20049;-84
2020/12/24 06:46:23;;;;;;;3.20;2.40;;;11.60;96.70;;;;;;4984180;28;20501;-83
2020/12/24 06:49:01;;;;;;;3.15;2.83;;;11.60;96.70;;;;;;4974273;28;20081;-84
2020/12/24 06:51:45;;;;;;;3.80;2.75;;;11.70;96.70;;;;;;5002508;28;20050;-84
2020/12/24 06:54:21;;;;;;;3.38;2.90;;;11.70;96.70;;;;;;5009796;28;20041;-84
2020/12/24 06:56:48;;;;;;;5.30;3.53;;;11.70;96.70;;;;;;5000447;28;20151;-83
2020/12/24 06:59:20;;;;;;;5.57;3.30;;;11.80;96.70;;;;;;5019854;28;20034;-83
2020/12/24 07:02:03;;;;;;;4.55;3.67;;;11.80;96.70;;;;;;5004487;28;20337;-84
2020/12/24 07:04:40;;;;;;;5.43;3.95;;;11.80;96.70;;;;;;5010724;28;20053;-84
2020/12/24 07:07:08;;;;;;;3.75;3.45;;;11.80;96.70;;;;;;4991130;28;20121;-84
2020/12/24 07:09:43;;;;;;;4.40;3.63;;;11.70;96.70;;;;;;4980692;28;20042;-84
2020/12/24 07:12:30;;;;;;;6.18;3.20;;;11.70;96.70;;;;;;5004175;28;20073;-83
2020/12/24 07:15:19;;;;;;;4.38;3.50;;;11.70;96.70;;;;;;4995952;28;20757;-84
2020/12/24 07:17:46;;;;;;;4.30;3.38;;;11.70;96.70;;;;;;5005245;28;20153;-84
2020/12/24 07:20:18;;;;;;;4.30;3.40;;;11.70;96.70;;;;;;5018295;28;20042;-83
2020/12/24 07:22:54;;;;;;;6.13;3.42;;;11.80;96.70;;;;;;5004943;28;20108;-84
2020/12/24 07:25:22;;;;;;;4.80;3.38;;;11.80;96.70;;;;;;5001339;28;20045;-83
2020/12/24 07:27:51;;;;;;;4.35;3.05;;;11.80;96.70;;;;;;5005267;28;20041;-84
2020/12/24 07:30:21;;;;;;;5.40;3.17;;;11.80;96.70;;;;;;4998599;28;20042;-84
2020/12/24 07:32:54;;;;;;;5.20;3.40;;;11.80;96.70;;;;;;4980170;28;20057;-84
2020/12/24 07:35:22;;;;;;;5.68;3.55;;;11.80;96.70;;;;;;4986825;28;20042;-84
2020/12/24 07:37:54;;;;;;;4.57;3.53;;;11.90;96.70;;;;;;5002941;28;20386;-84
2020/12/24 07:40:30;;;;;;;6.95;3.40;;;11.90;96.70;;;;;;4971854;28;20045;-84
2020/12/24 07:43:12;;;;;;;;;;;11.90;96.70;;;;;;5004102;28;20054;-84
2020/12/24 07:45:40;;;;;;;5.10;3.03;;;12.00;96.70;;;;;;5000988;28;19941;-84
2020/12/24 07:48:13;;;;;;;4.13;3.28;;;12.00;96.70;;;;;;5000155;28;20420;-84
2020/12/24 07:50:42;;;;;;;3.25;2.95;;;12.00;96.70;;;;;;5000059;28;20045;-84
2020/12/24 07:53:17;;;;;;;3.67;3.28;;;12.00;96.70;;;;;;4965073;28;20142;-84
2020/12/24 07:55:44;;;;;;;4.93;3.20;;;12.00;96.70;;;;;;5001681;28;20054;-84
2020/12/24 07:58:12;;;;;;;4.72;3.08;;;12.10;96.70;;;;;;4999141;28;20042;-83
2020/12/24 08:00:42;;;;;;;4.85;3.38;;;12.10;96.70;;;;;;4995096;28;20038;-84
2020/12/24 08:03:10;;;;;;;4.78;3.25;;;12.10;96.70;;;;;;5017881;28;20048;-85
2020/12/24 08:05:37;;;;;;;5.13;3.13;;;12.20;96.70;;;;;;5003556;28;20202;-85
2020/12/24 08:08:05;;;;;;;4.07;3.25;;;12.20;96.70;;;;;;5000844;28;20057;-85
2020/12/24 08:10:37;;;;;;;4.35;3.10;;;12.20;96.70;;;;;;5018741;28;20041;-85
2020/12/24 08:13:04;;;;;;;5.28;3.30;;;12.30;96.70;;;;;;5003582;28;20041;-83
2020/12/24 08:15:33;;;;;;;3.60;3.25;;;12.40;96.70;;;;;;4968854;28;20061;-85
2020/12/24 08:18:02;;;;;;;6.45;3.33;;;12.40;96.70;;;;;;5018267;28;20499;-85
2020/12/24 08:20:39;;;;;;;5.38;3.55;;;12.40;96.70;;;;;;4989660;28;20314;-85
2020/12/24 08:23:17;;;;;;;4.25;3.20;;;12.40;96.70;;;;;;5017709;28;20038;-85
2020/12/24 08:25:47;;;;;;;4.22;3.33;;;12.40;96.70;;;;;;5005138;28;20062;-84
2020/12/24 08:28:15;;;;;;;5.05;3.67;;;12.50;96.70;;;;;;5000368;28;20038;-85
2020/12/24 08:30:53;;;;;;;4.40;3.70;;;12.50;96.70;;;;;;5019430;28;20053;-85
2020/12/24 08:33:23;;;;;;;4.38;3.30;;;12.50;96.70;;;;;;5014392;28;20152;-81
2020/12/24 08:35:50;;;;;;;3.75;3.13;;;12.60;96.70;;;;;;5020233;28;20046;-88
2020/12/24 08:38:19;;;;;;;4.78;3.55;;;12.60;96.70;;;;;;4999960;28;20520;-81
2020/12/24 08:40:47;;;;;;;4.97;3.90;;;12.60;96.70;;;;;;5001662;28;20041;-82
2020/12/24 08:43:14;;;;;;;8.20;4.18;;;12.70;96.70;;;;;;4982414;28;20050;-84
2020/12/24 08:45:43;;;;;;;4.35;3.50;;;12.70;96.70;;;;;;4969426;28;20057;-87
2020/12/24 08:48:26;;;;;;;5.70;4.32;;;12.70;96.70;;;;;;4981922;28;20128;-85
2020/12/24 08:50:53;;;;;;;4.32;3.42;;;12.70;96.70;;;;;;5020339;28;20458;-85
2020/12/24 08:53:23;;;;;;;8.55;4.07;;;12.80;96.70;;;;;;4985021;28;20053;-83
2020/12/24 08:55:51;;;;;;;4.20;3.38;;;12.80;96.70;;;;;;5004552;28;20100;-83
2020/12/24 08:58:18;;;;;;;3.58;3.28;;;12.80;96.70;;;;;;4987101;28;20053;-85
2020/12/24 09:00:45;;;;;;;4.68;3.40;;;12.80;96.70;;;;;;5017546;28;20452;-85
2020/12/24 09:03:27;;;;;;;4.55;3.33;;;12.90;96.70;;;;;;5017792;28;20042;-84
2020/12/24 09:05:55;;;;;;;7.65;4.40;;;12.90;96.70;;;;;;5014823;28;20042;-83
2020/12/24 09:08:24;;;;;;;5.85;3.55;;;12.90;96.70;;;;;;5015313;28;20045;-84
2020/12/24 09:10:52;;;;;;;4.88;2.90;;;12.90;96.70;;;;;;5015512;28;20046;-79
2020/12/24 09:13:19;;;;;;;6.38;3.17;;;13.00;96.70;;;;;;5000967;28;20226;-84
2020/12/24 09:15:47;;;;;;;9.65;5.93;;;13.10;96.70;;;;;;4994006;28;20460;-79
2020/12/24 09:18:17;;;;;;;5.00;3.55;;;13.10;96.70;;;;;;4999549;28;20396;-80
2020/12/24 09:20:45;;;;;;;6.13;3.85;;;13.10;96.70;;;;;;4992529;28;20069;-84
2020/12/24 09:23:15;;;;;;;11.32;6.88;;;13.20;96.70;;;;;;4985935;28;20129;-82
2020/12/24 09:25:44;;;;;;;5.20;4.28;;;13.20;96.70;;;;;;5015544;28;20056;-84
2020/12/24 09:28:20;;;;;;;4.40;2.92;;;13.30;96.70;;;;;;5012080;28;20069;-82
2020/12/24 09:30:49;;;;;;;6.90;4.13;;;13.30;96.70;;;;;;5015936;28;20069;-86
2020/12/24 09:33:16;;;;;;;9.63;6.18;;;13.30;96.70;;;;;;4981543;28;20054;-84
2020/12/24 09:35:44;;;;;;;12.15;9.05;;;13.30;96.70;;;;;;5012579;28;20050;-85
2020/12/24 09:38:11;;;;;;;10.88;9.25;;;13.30;96.70;;;;;;5001851;28;20098;-84
2020/12/24 09:40:39;;;;;;;8.52;6.88;;;13.30;96.70;;;;;;4993767;28;20038;-82
2020/12/24 09:43:07;;;;;;;6.28;5.00;;;13.30;96.70;;;;;;4997636;28;20049;-82
2020/12/24 09:45:36;;;;;;;4.10;2.85;;;13.30;96.70;;;;;;5012057;28;20116;-83
2020/12/24 09:48:04;;;;;;;4.53;2.20;;;13.30;96.70;;;;;;4985004;28;20073;-84
2020/12/24 09:50:34;;;;;;;3.75;1.60;;;13.30;96.70;;;;;;4981875;28;20496;-82
2020/12/24 09:53:02;;;;;;;5.35;2.00;;;13.30;96.70;;;;;;4988508;28;20042;-81
2020/12/24 09:55:29;;;;;;;3.10;2.03;;;13.30;96.70;;;;;;4995449;28;20152;-84
2020/12/24 09:57:57;;;;;;;2.67;2.13;;;13.30;96.70;;;;;;4994981;28;20069;-87
2020/12/24 10:00:25;;;;;;;4.10;2.63;;;13.30;96.70;;;;;;5001432;28;20460;-87
2020/12/24 10:02:52;;;;;;;3.28;2.70;;;13.30;96.70;;;;;;4999686;28;20046;-84
2020/12/24 10:05:19;;;;;;;5.80;2.50;;;13.40;96.70;;;;;;5002204;28;20458;-86
2020/12/24 10:07:51;;;;;;;6.03;3.42;;;13.40;96.70;;;;;;4998006;28;20133;-89
2020/12/24 10:10:18;;;;;;;3.53;2.88;;;13.50;96.70;;;;;;4997790;28;20149;-85
2020/12/24 10:12:45;;;;;;;6.90;3.60;;;13.50;96.70;;;;;;5000063;28;20576;-84
2020/12/24 10:15:12;;;;;;;7.40;4.25;;;13.50;96.70;;;;;;5015851;28;20511;-82
2020/12/24 10:17:40;;;;;;;6.38;4.43;;;13.50;96.70;;;;;;4998187;28;20082;-86
2020/12/24 10:20:07;;;;;;;7.28;4.85;;;13.50;96.70;;;;;;4985979;28;20053;-87
2020/12/24 10:22:35;;;;;;;8.35;4.40;;;13.50;96.70;;;;;;4999971;28;20058;-87
2020/12/24 10:25:02;;;;;;;10.75;6.68;;;13.50;96.70;;;;;;5018022;28;20080;-87
2020/12/24 10:27:29;;;;;;;7.30;5.78;;;13.50;96.70;;;;;;5016045;28;20066;-87
2020/12/24 10:29:56;;;;;;;10.98;6.55;;;13.50;96.70;;;;;;4990972;28;20555;-87
2020/12/24 10:32:24;;;;;;;8.43;6.00;;;13.50;96.70;;;;;;5018474;28;20064;-88
2020/12/24 10:34:52;;;;;;;8.68;6.00;;;13.50;96.70;;;;;;5004651;28;20061;-87
2020/12/24 10:37:19;;;;;;;11.15;5.63;;;13.50;96.70;;;;;;4988122;28;20033;-87
2020/12/24 10:39:47;;;;;;;10.23;6.18;;;13.50;96.70;;;;;;4987077;28;20606;-88
2020/12/24 10:42:20;;;;;;;87.47;59.47;;;13.50;96.70;;;;;;4989107;28;20049;-86
2020/12/24 10:44:47;;;;;;;30.02;21.02;;;13.50;96.70;;;;;;5006305;28;20587;-87
2020/12/24 10:47:15;;;;;;;17.38;12.25;;;13.50;96.70;;;;;;4988263;28;20121;-86
2020/12/24 10:49:43;;;;;;;12.40;9.02;;;13.50;96.70;;;;;;4972328;28;20029;-86
2020/12/24 10:52:12;;;;;;;9.13;6.97;;;13.50;96.70;;;;;;5005024;28;20054;-87
2020/12/24 10:54:39;;;;;;;10.95;7.13;;;13.50;96.70;;;;;;4985176;28;21072;-87
2020/12/24 10:57:06;;;;;;;10.65;6.28;;;13.50;96.70;;;;;;4998864;28;20045;-87
2020/12/24 10:59:33;;;;;;;9.75;6.82;;;13.50;96.70;;;;;;5004176;28;20050;-87
2020/12/24 11:02:00;;;;;;;13.25;7.22;;;13.50;96.70;;;;;;4975816;28;20092;-87
2020/12/24 11:04:29;;;;;;;10.77;7.57;;;13.50;96.70;;;;;;4992683;28;20057;-87
2020/12/24 11:06:57;;;;;;;9.32;7.93;;;13.50;96.70;;;;;;4970901;28;20144;-87
2020/12/24 11:09:25;;;;;;;10.93;8.23;;;13.40;96.70;;;;;;4989821;28;20053;-87
2020/12/24 11:11:52;;;;;;;9.98;8.65;;;13.40;96.70;;;;;;5020857;28;20455;-87
2020/12/24 11:14:19;;;;;;;11.20;9.85;;;13.40;96.70;;;;;;4972214;28;20038;-87
2020/12/24 11:16:47;;;;;;;15.05;10.50;;;13.40;96.70;;;;;;4987819;28;20088;-88
2020/12/24 11:19:14;;;;;;;13.13;9.15;;;13.40;96.70;;;;;;5003082;28;20092;-87
2020/12/24 11:21:41;;;;;;;10.30;7.85;;;13.40;96.70;;;;;;4968028;28;20060;-87
2020/12/24 11:24:08;;;;;;;13.00;8.35;;;13.40;96.70;;;;;;5007560;28;20042;-88
2020/12/24 11:26:37;;;;;;;14.02;9.60;;;13.40;96.70;;;;;;5005977;28;20177;-87
2020/12/24 11:29:07;;;;;;;12.02;8.00;;;13.50;96.70;;;;;;5004555;28;20051;-87
2020/12/24 11:31:36;;;;;;;10.73;9.70;;;13.50;96.70;;;;;;4999839;28;20049;-88
2020/12/24 11:34:03;;;;;;;14.52;11.73;;;13.50;96.70;;;;;;4968198;28;20038;-87
2020/12/24 11:36:31;;;;;;;15.35;13.07;;;13.50;96.70;;;;;;4967337;28;20051;-88
2020/12/24 11:38:59;;;;;;;17.75;16.05;;;13.50;96.70;;;;;;4969763;28;20045;-86
2020/12/24 11:41:28;;;;;;;16.77;14.90;;;13.50;96.70;;;;;;4969001;28;20105;-86
2020/12/24 11:43:57;;;;;;;15.07;10.65;;;13.50;96.70;;;;;;4973320;28;20046;-88
2020/12/24 11:46:26;;;;;;;11.07;8.20;;;13.50;96.70;;;;;;4968792;28;20482;-87
2020/12/24 11:48:54;;;;;;;8.93;7.82;;;13.50;96.70;;;;;;4983995;28;20472;-88
2020/12/24 11:51:23;;;;;;;7.43;6.60;;;13.50;96.70;;;;;;4968423;28;20039;-88
2020/12/24 11:53:50;;;;;;;9.80;8.82;;;13.50;96.70;;;;;;4984546;28;20500;-87
2020/12/24 11:56:19;;;;;;;9.48;8.57;;;13.60;96.70;;;;;;4986382;28;20066;-87
2020/12/24 11:58:48;;;;;;;17.40;12.57;;;13.60;96.70;;;;;;4984010;28;20460;-88
2020/12/24 12:01:17;;;;;;;15.65;10.95;;;13.60;96.70;;;;;;4968804;28;20046;-88
2020/12/24 12:03:45;;;;;;;11.30;9.30;;;13.60;96.70;;;;;;4983938;28;20558;-87
2020/12/24 12:06:12;;;;;;;11.23;7.88;;;13.60;96.70;;;;;;4982982;28;20034;-87
2020/12/24 12:08:44;;;;;;;13.18;8.93;;;13.60;96.70;;;;;;4997552;28;20046;-87
2020/12/24 12:11:11;;;;;;;14.18;9.75;;;13.70;96.70;;;;;;4952800;28;20170;-87
2020/12/24 12:13:38;;;;;;;11.57;9.07;;;13.70;96.70;;;;;;4984200;28;20101;-88
2020/12/24 12:16:07;;;;;;;12.25;9.25;;;13.70;96.70;;;;;;4965040;28;20401;-88
2020/12/24 12:18:36;;;;;;;16.58;12.95;;;13.70;96.70;;;;;;4952786;28;20045;-87
2020/12/24 12:21:04;;;;;;;11.30;9.75;;;13.70;96.70;;;;;;4967635;28;20069;-87
2020/12/24 12:23:31;;;;;;;13.80;11.82;;;13.70;96.70;;;;;;4967075;28;20043;-87
2020/12/24 12:26:09;;;;;;;14.98;13.40;;;13.70;96.70;;;;;;4953004;28;20045;-87
2020/12/24 12:28:36;;;;;;;23.45;19.35;;;13.70;96.70;;;;;;4957076;28;20042;-87
2020/12/24 12:31:04;;;;;;;23.85;18.80;;;13.70;96.70;;;;;;4972164;28;20037;-87
2020/12/24 12:33:31;;;;;;;19.55;17.45;;;13.70;96.70;;;;;;5006895;28;20041;-88
2020/12/24 12:35:59;;;;;;;23.02;20.55;;;13.60;96.70;;;;;;4986828;28;20125;-88
2020/12/24 12:38:26;;;;;;;23.55;21.00;;;13.60;96.70;;;;;;4999116;28;20048;-87
2020/12/24 12:40:54;;;;;;;25.20;22.55;;;13.60;96.70;;;;;;4988934;28;20570;-87
2020/12/24 12:43:21;;;;;;;26.90;23.45;;;13.60;96.70;;;;;;5002018;28;20049;-87
2020/12/24 12:45:48;;;;;;;30.27;23.55;;;13.60;96.70;;;;;;5004924;28;20053;-87
2020/12/24 12:48:15;;;;;;;40.08;31.42;;;13.60;96.70;;;;;;5001198;28;20030;-87
2020/12/24 12:50:42;;;;;;;31.33;25.15;;;13.60;96.70;;;;;;4987886;28;20082;-87
2020/12/24 12:53:10;;;;;;;27.83;23.70;;;13.60;96.70;;;;;;5006884;28;20038;-88
2020/12/24 12:55:38;;;;;;;19.35;17.25;;;13.60;96.70;;;;;;4986599;28;20073;-88